Clay Center, KS (67432)

2:27 PM CDT on August 30, 2016 (GMT -0500)
Clay County Medical Center | | Change Station
Active Advisory: Flash Flood Watch

Elev 1274 ft 39.39 °N, 97.12 °W | Updated 7 seconds ago

Mostly Cloudy
Mostly Cloudy
81.2 °F
Feels Like 86 °F
N
6.0
Wind Variable Wind from East
Gusts 8.0 mph

Today
High -- | Low -- °F
--% Chance of Precip.
Yesterday
High -- | Low -- °F
Precip. -- in
Pressure 30.14 in
Visibility 10.0 miles
Clouds Few 2500 ft
Scattered Clouds 3000 ft
Mostly Cloudy 3600 ft
Heat Index 86 °F
Dew Point 72 °F
Humidity 73%
Rainfall 0.30 in
Snow Depth Not available.
6:55 AM 8:01 PM
Waning Crescent, 3% visible
SPECI KMHK 301911Z 06007KT 10SM FEW025 SCT030 BKN036 28/22 A3014 RMK AO2 LTG DSNT SW T02830222
Pressure 30.14 in
Visibility 10.0 miles
Clouds Few 2500 ft
Scattered Clouds 3000 ft
Mostly Cloudy 3600 ft
Heat Index 86 °F
Dew Point 72 °F
Humidity 73%
Rainfall 0.30 in
Snow Depth Not available.
6:55 AM 8:01 PM
Waning Crescent, 3% visible
SPECI KMHK 301911Z 06007KT 10SM FEW025 SCT030 BKN036 28/22 A3014 RMK AO2 LTG DSNT SW T02830222

10-Day Weather Forecast

Almanac

Astronomy

Aug. 30, 2016 Rise Set
Actual Time
Civil Twilight
Nautical Twilight
Astronomical Twilight
Moon
Length of Visible Light
Length of Day
Tomorrow will be .
, % of the Moon is Illuminated

Today's Extremes

State Highs State Lows

Community

WunderPhotos

Upload Photos

1,935,882 photos uploaded!

WunderBlog® & News

Nearby

Air Quality

  Air Quality AQ Index Pollutant
Not available.

Snow Depth

Station Depth Elevation

Earthquake Activity

City Distance Mag. Time & Date
Minimum magnitude displayed is 2.5.

Coastal Water Temperatures

Place Temperature

Stations

Nearby Weather Stations

Station Location Temp. Windchill Dew Point Humidity Wind Precip. Elev Updated Type
                   

Watches & Warnings

Flash Flood Watch
Issued: 3:38 AM CDT Aug. 30, 2016 – National Weather Service

... Flash Flood Watch remains in effect through 7 PM CDT this
evening...

The Flash Flood Watch continues for

* portions of north central Kansas and northeast Kansas...
including the following areas... in north central Kansas...
Clay... cloud... Ottawa... Republic and Washington. In northeast
Kansas... Brown... Jackson... Marshall... Nemaha... Pottawatomie
and Riley.

* Through 7 PM CDT this evening

* scattered thunderstorms are expected today across north central
and northeast Kansas. The ground remains saturated from previous
heavy rainfall across the watch area. An additional 1 to 2
inches or more of rainfall is possible through early this
evening. This additional rain could result in flash flooding.

Precautionary/preparedness actions...

A Flash Flood Watch means that conditions may develop that lead
to flash flooding. Flash flooding is a very dangerous situation.

You should monitor later forecasts and be prepared to take action
should flash flood warnings be issued.